sensor_id;sensor_type;location;lat;lon;timestamp;P1;durP1;ratioP1;P2;durP2;ratioP2
4700;SDS011;8724;51.272;6.554;2023-05-10T00:00:29;13.60;;;12.30;;
4700;SDS011;8724;51.272;6.554;2023-05-10T00:02:57;13.67;;;12.37;;
4700;SDS011;8724;51.272;6.554;2023-05-10T00:05:26;12.73;;;11.57;;
4700;SDS011;8724;51.272;6.554;2023-05-10T00:07:56;12.60;;;11.13;;
4700;SDS011;8724;51.272;6.554;2023-05-10T00:10:24;12.93;;;11.53;;
4700;SDS011;8724;51.272;6.554;2023-05-10T00:12:53;12.80;;;11.60;;
4700;SDS011;8724;51.272;6.554;2023-05-10T00:15:21;10.60;;;9.70;;
4700;SDS011;8724;51.272;6.554;2023-05-10T00:17:50;11.10;;;10.10;;
4700;SDS011;8724;51.272;6.554;2023-05-10T00:20:18;12.53;;;11.30;;
4700;SDS011;8724;51.272;6.554;2023-05-10T00:22:46;11.60;;;10.50;;
4700;SDS011;8724;51.272;6.554;2023-05-10T00:25:16;10.67;;;9.77;;
4700;SDS011;8724;51.272;6.554;2023-05-10T00:27:45;11.80;;;10.70;;
4700;SDS011;8724;51.272;6.554;2023-05-10T00:30:13;11.63;;;10.60;;
4700;SDS011;8724;51.272;6.554;2023-05-10T00:32:42;8.67;;;7.80;;
4700;SDS011;8724;51.272;6.554;2023-05-10T00:35:10;10.67;;;9.60;;
4700;SDS011;8724;51.272;6.554;2023-05-10T00:37:39;10.37;;;9.47;;
4700;SDS011;8724;51.272;6.554;2023-05-10T00:40:08;11.50;;;10.50;;
4700;SDS011;8724;51.272;6.554;2023-05-10T00:42:38;11.37;;;10.30;;
4700;SDS011;8724;51.272;6.554;2023-05-10T00:45:07;9.10;;;8.20;;
4700;SDS011;8724;51.272;6.554;2023-05-10T00:47:35;9.53;;;8.70;;
4700;SDS011;8724;51.272;6.554;2023-05-10T00:50:04;8.67;;;7.90;;
4700;SDS011;8724;51.272;6.554;2023-05-10T00:52:35;10.27;;;9.33;;
4700;SDS011;8724;51.272;6.554;2023-05-10T00:55:04;9.40;;;8.50;;
4700;SDS011;8724;51.272;6.554;2023-05-10T00:57:33;9.37;;;8.47;;
4700;SDS011;8724;51.272;6.554;2023-05-10T01:00:04;9.23;;;8.43;;
4700;SDS011;8724;51.272;6.554;2023-05-10T01:02:33;9.70;;;8.70;;
4700;SDS011;8724;51.272;6.554;2023-05-10T01:05:02;8.93;;;8.13;;
4700;SDS011;8724;51.272;6.554;2023-05-10T01:07:31;9.77;;;8.73;;
4700;SDS011;8724;51.272;6.554;2023-05-10T01:10:00;10.27;;;9.37;;
4700;SDS011;8724;51.272;6.554;2023-05-10T01:12:28;8.60;;;7.80;;
4700;SDS011;8724;51.272;6.554;2023-05-10T01:14:57;8.60;;;7.77;;
4700;SDS011;8724;51.272;6.554;2023-05-10T01:17:27;10.20;;;9.30;;
4700;SDS011;8724;51.272;6.554;2023-05-10T01:19:56;8.00;;;7.30;;
4700;SDS011;8724;51.272;6.554;2023-05-10T01:22:39;9.63;;;8.73;;
4700;SDS011;8724;51.272;6.554;2023-05-10T01:25:31;7.70;;;6.97;;
4700;SDS011;8724;51.272;6.554;2023-05-10T01:28:17;7.10;;;6.50;;
4700;SDS011;8724;51.272;6.554;2023-05-10T01:31:17;7.20;;;6.50;;
4700;SDS011;8724;51.272;6.554;2023-05-10T01:33:54;8.30;;;7.50;;
4700;SDS011;8724;51.272;6.554;2023-05-10T01:36:28;7.40;;;6.73;;
4700;SDS011;8724;51.272;6.554;2023-05-10T01:38:59;5.80;;;5.30;;
4700;SDS011;8724;51.272;6.554;2023-05-10T01:41:36;6.20;;;5.60;;
4700;SDS011;8724;51.272;6.554;2023-05-10T01:44:10;6.00;;;5.50;;
4700;SDS011;8724;51.272;6.554;2023-05-10T01:46:46;6.93;;;6.13;;
4700;SDS011;8724;51.272;6.554;2023-05-10T01:49:25;5.30;;;4.80;;
4700;SDS011;8724;51.272;6.554;2023-05-10T01:51:58;6.67;;;6.07;;
4700;SDS011;8724;51.272;6.554;2023-05-10T01:54:29;5.80;;;5.30;;
4700;SDS011;8724;51.272;6.554;2023-05-10T01:57:03;5.60;;;5.10;;
4700;SDS011;8724;51.272;6.554;2023-05-10T01:59:35;4.97;;;4.47;;
4700;SDS011;8724;51.272;6.554;2023-05-10T02:02:07;5.40;;;5.00;;
4700;SDS011;8724;51.272;6.554;2023-05-10T02:04:40;5.33;;;4.83;;
4700;SDS011;8724;51.272;6.554;2023-05-10T02:07:10;5.43;;;4.90;;
4700;SDS011;8724;51.272;6.554;2023-05-10T02:09:39;4.60;;;4.20;;
4700;SDS011;8724;51.272;6.554;2023-05-10T02:12:14;3.93;;;3.63;;
4700;SDS011;8724;51.272;6.554;2023-05-10T02:14:43;4.20;;;3.80;;
4700;SDS011;8724;51.272;6.554;2023-05-10T02:17:14;4.27;;;3.87;;
4700;SDS011;8724;51.272;6.554;2023-05-10T02:19:45;4.97;;;4.57;;
4700;SDS011;8724;51.272;6.554;2023-05-10T02:22:17;4.30;;;4.00;;
4700;SDS011;8724;51.272;6.554;2023-05-10T02:24:48;5.50;;;4.93;;
4700;SDS011;8724;51.272;6.554;2023-05-10T02:27:18;5.37;;;4.90;;
4700;SDS011;8724;51.272;6.554;2023-05-10T02:29:48;4.93;;;4.60;;
4700;SDS011;8724;51.272;6.554;2023-05-10T02:32:18;6.43;;;4.93;;
4700;SDS011;8724;51.272;6.554;2023-05-10T02:34:48;5.77;;;5.13;;
4700;SDS011;8724;51.272;6.554;2023-05-10T02:37:18;5.20;;;4.80;;
4700;SDS011;8724;51.272;6.554;2023-05-10T02:39:48;5.90;;;5.40;;
4700;SDS011;8724;51.272;6.554;2023-05-10T02:42:18;7.23;;;5.10;;
4700;SDS011;8724;51.272;6.554;2023-05-10T02:44:51;5.30;;;4.80;;
4700;SDS011;8724;51.272;6.554;2023-05-10T02:47:21;4.67;;;4.27;;
4700;SDS011;8724;51.272;6.554;2023-05-10T02:49:51;5.47;;;4.97;;
4700;SDS011;8724;51.272;6.554;2023-05-10T02:52:21;5.57;;;5.07;;
4700;SDS011;8724;51.272;6.554;2023-05-10T02:54:54;5.63;;;5.17;;
4700;SDS011;8724;51.272;6.554;2023-05-10T02:57:26;5.17;;;4.40;;
4700;SDS011;8724;51.272;6.554;2023-05-10T02:59:59;5.07;;;4.67;;
4700;SDS011;8724;51.272;6.554;2023-05-10T03:02:29;5.23;;;4.83;;
4700;SDS011;8724;51.272;6.554;2023-05-10T03:05:00;5.40;;;4.90;;
4700;SDS011;8724;51.272;6.554;2023-05-10T03:07:29;5.73;;;5.23;;
4700;SDS011;8724;51.272;6.554;2023-05-10T03:09:58;5.87;;;5.37;;
4700;SDS011;8724;51.272;6.554;2023-05-10T03:12:30;5.47;;;5.07;;
4700;SDS011;8724;51.272;6.554;2023-05-10T03:15:08;6.60;;;6.03;;
4700;SDS011;8724;51.272;6.554;2023-05-10T03:17:45;5.17;;;4.77;;
4700;SDS011;8724;51.272;6.554;2023-05-10T03:20:20;6.87;;;6.27;;
4700;SDS011;8724;51.272;6.554;2023-05-10T03:22:51;5.67;;;5.03;;
4700;SDS011;8724;51.272;6.554;2023-05-10T03:25:23;5.90;;;5.40;;
4700;SDS011;8724;51.272;6.554;2023-05-10T03:27:52;5.67;;;5.17;;
4700;SDS011;8724;51.272;6.554;2023-05-10T03:30:22;6.73;;;6.03;;
4700;SDS011;8724;51.272;6.554;2023-05-10T03:32:52;6.27;;;5.70;;
4700;SDS011;8724;51.272;6.554;2023-05-10T03:35:22;7.57;;;6.80;;
4700;SDS011;8724;51.272;6.554;2023-05-10T03:37:51;8.60;;;7.70;;
4700;SDS011;8724;51.272;6.554;2023-05-10T03:40:20;10.80;;;9.70;;
4700;SDS011;8724;51.272;6.554;2023-05-10T03:42:49;11.03;;;9.90;;
4700;SDS011;8724;51.272;6.554;2023-05-10T03:45:17;11.80;;;10.57;;
4700;SDS011;8724;51.272;6.554;2023-05-10T03:47:46;13.13;;;11.60;;
4700;SDS011;8724;51.272;6.554;2023-05-10T03:50:15;16.03;;;12.00;;
4700;SDS011;8724;51.272;6.554;2023-05-10T03:52:45;13.83;;;12.33;;
4700;SDS011;8724;51.272;6.554;2023-05-10T03:55:13;13.33;;;12.03;;
4700;SDS011;8724;51.272;6.554;2023-05-10T03:57:43;16.03;;;11.10;;
4700;SDS011;8724;51.272;6.554;2023-05-10T04:00:12;12.27;;;10.27;;
4700;SDS011;8724;51.272;6.554;2023-05-10T04:02:41;12.80;;;11.40;;
4700;SDS011;8724;51.272;6.554;2023-05-10T04:05:16;16.80;;;12.30;;
4700;SDS011;8724;51.272;6.554;2023-05-10T04:07:46;14.53;;;11.00;;
4700;SDS011;8724;51.272;6.554;2023-05-10T04:10:15;13.50;;;11.27;;
4700;SDS011;8724;51.272;6.554;2023-05-10T04:12:44;12.67;;;11.33;;
4700;SDS011;8724;51.272;6.554;2023-05-10T04:15:13;13.87;;;11.77;;
4700;SDS011;8724;51.272;6.554;2023-05-10T04:17:41;20.73;;;10.90;;
4700;SDS011;8724;51.272;6.554;2023-05-10T04:20:10;14.80;;;12.07;;
4700;SDS011;8724;51.272;6.554;2023-05-10T04:22:39;13.20;;;11.80;;
4700;SDS011;8724;51.272;6.554;2023-05-10T04:25:09;14.67;;;12.10;;
4700;SDS011;8724;51.272;6.554;2023-05-10T04:27:38;13.00;;;11.60;;
4700;SDS011;8724;51.272;6.554;2023-05-10T04:30:07;13.00;;;11.60;;
4700;SDS011;8724;51.272;6.554;2023-05-10T04:32:37;16.03;;;12.40;;
4700;SDS011;8724;51.272;6.554;2023-05-10T04:35:05;14.70;;;12.83;;
4700;SDS011;8724;51.272;6.554;2023-05-10T04:37:34;15.50;;;12.80;;
4700;SDS011;8724;51.272;6.554;2023-05-10T04:40:03;16.30;;;13.90;;
4700;SDS011;8724;51.272;6.554;2023-05-10T04:42:34;16.87;;;13.10;;
4700;SDS011;8724;51.272;6.554;2023-05-10T04:45:02;15.43;;;13.00;;
4700;SDS011;8724;51.272;6.554;2023-05-10T04:47:31;15.50;;;13.10;;
4700;SDS011;8724;51.272;6.554;2023-05-10T04:50:00;14.87;;;12.10;;
4700;SDS011;8724;51.272;6.554;2023-05-10T04:52:28;14.33;;;12.80;;
4700;SDS011;8724;51.272;6.554;2023-05-10T04:54:57;16.17;;;14.00;;
4700;SDS011;8724;51.272;6.554;2023-05-10T04:57:25;18.60;;;14.20;;
4700;SDS011;8724;51.272;6.554;2023-05-10T04:59:55;15.80;;;14.10;;
4700;SDS011;8724;51.272;6.554;2023-05-10T05:02:23;16.93;;;14.37;;
4700;SDS011;8724;51.272;6.554;2023-05-10T05:04:52;16.17;;;13.03;;
4700;SDS011;8724;51.272;6.554;2023-05-10T05:07:20;17.30;;;13.50;;
4700;SDS011;8724;51.272;6.554;2023-05-10T05:09:48;15.60;;;12.70;;
4700;SDS011;8724;51.272;6.554;2023-05-10T05:12:17;14.30;;;12.67;;
4700;SDS011;8724;51.272;6.554;2023-05-10T05:14:45;16.20;;;13.30;;
4700;SDS011;8724;51.272;6.554;2023-05-10T05:17:15;14.13;;;12.70;;
4700;SDS011;8724;51.272;6.554;2023-05-10T05:19:43;13.87;;;11.67;;
4700;SDS011;8724;51.272;6.554;2023-05-10T05:22:12;12.73;;;11.43;;
4700;SDS011;8724;51.272;6.554;2023-05-10T05:24:40;15.47;;;11.90;;
4700;SDS011;8724;51.272;6.554;2023-05-10T05:27:08;12.23;;;10.47;;
4700;SDS011;8724;51.272;6.554;2023-05-10T05:29:37;12.77;;;10.33;;
4700;SDS011;8724;51.272;6.554;2023-05-10T05:32:05;18.97;;;11.07;;
4700;SDS011;8724;51.272;6.554;2023-05-10T05:34:36;12.27;;;10.80;;
4700;SDS011;8724;51.272;6.554;2023-05-10T05:37:04;16.20;;;11.90;;
4700;SDS011;8724;51.272;6.554;2023-05-10T05:39:35;13.47;;;11.30;;
4700;SDS011;8724;51.272;6.554;2023-05-10T05:42:04;14.83;;;11.73;;
4700;SDS011;8724;51.272;6.554;2023-05-10T05:44:32;15.07;;;10.60;;
4700;SDS011;8724;51.272;6.554;2023-05-10T05:47:00;14.00;;;12.57;;
4700;SDS011;8724;51.272;6.554;2023-05-10T05:49:29;18.60;;;12.93;;
4700;SDS011;8724;51.272;6.554;2023-05-10T05:51:59;18.70;;;14.33;;
4700;SDS011;8724;51.272;6.554;2023-05-10T05:54:29;18.73;;;14.80;;
4700;SDS011;8724;51.272;6.554;2023-05-10T05:56:58;20.07;;;15.30;;
4700;SDS011;8724;51.272;6.554;2023-05-10T05:59:28;23.20;;;18.10;;
4700;SDS011;8724;51.272;6.554;2023-05-10T06:01:56;22.90;;;15.73;;
4700;SDS011;8724;51.272;6.554;2023-05-10T06:04:25;22.57;;;15.93;;
4700;SDS011;8724;51.272;6.554;2023-05-10T06:06:53;21.13;;;14.80;;
4700;SDS011;8724;51.272;6.554;2023-05-10T06:09:23;23.57;;;15.10;;
4700;SDS011;8724;51.272;6.554;2023-05-10T06:11:52;17.53;;;13.33;;
4700;SDS011;8724;51.272;6.554;2023-05-10T06:14:20;18.53;;;13.70;;
4700;SDS011;8724;51.272;6.554;2023-05-10T06:16:49;17.07;;;14.20;;
4700;SDS011;8724;51.272;6.554;2023-05-10T06:19:18;18.60;;;13.87;;
4700;SDS011;8724;51.272;6.554;2023-05-10T06:21:46;19.50;;;13.50;;
4700;SDS011;8724;51.272;6.554;2023-05-10T06:24:16;22.27;;;13.77;;
4700;SDS011;8724;51.272;6.554;2023-05-10T06:26:46;17.33;;;13.30;;
4700;SDS011;8724;51.272;6.554;2023-05-10T06:29:16;16.93;;;13.70;;
4700;SDS011;8724;51.272;6.554;2023-05-10T06:31:44;22.33;;;14.57;;
4700;SDS011;8724;51.272;6.554;2023-05-10T06:34:13;20.63;;;13.77;;
4700;SDS011;8724;51.272;6.554;2023-05-10T06:36:42;14.90;;;12.60;;
4700;SDS011;8724;51.272;6.554;2023-05-10T06:39:10;16.23;;;11.80;;
4700;SDS011;8724;51.272;6.554;2023-05-10T06:41:39;15.93;;;12.90;;
4700;SDS011;8724;51.272;6.554;2023-05-10T06:44:08;17.93;;;13.10;;
4700;SDS011;8724;51.272;6.554;2023-05-10T06:46:37;16.70;;;12.37;;
4700;SDS011;8724;51.272;6.554;2023-05-10T06:49:05;17.73;;;13.67;;
4700;SDS011;8724;51.272;6.554;2023-05-10T06:51:34;27.73;;;16.03;;
4700;SDS011;8724;51.272;6.554;2023-05-10T06:54:02;17.40;;;13.80;;
4700;SDS011;8724;51.272;6.554;2023-05-10T06:56:31;15.80;;;11.93;;
4700;SDS011;8724;51.272;6.554;2023-05-10T06:58:59;15.10;;;12.00;;
4700;SDS011;8724;51.272;6.554;2023-05-10T07:01:29;17.03;;;12.30;;
4700;SDS011;8724;51.272;6.554;2023-05-10T07:03:58;20.30;;;13.90;;
4700;SDS011;8724;51.272;6.554;2023-05-10T07:06:29;18.30;;;14.00;;
4700;SDS011;8724;51.272;6.554;2023-05-10T07:08:59;24.80;;;16.60;;
4700;SDS011;8724;51.272;6.554;2023-05-10T07:11:28;21.07;;;15.77;;
4700;SDS011;8724;51.272;6.554;2023-05-10T07:13:57;39.90;;;23.80;;
4700;SDS011;8724;51.272;6.554;2023-05-10T07:16:26;33.33;;;21.93;;
4700;SDS011;8724;51.272;6.554;2023-05-10T07:18:56;33.17;;;24.50;;
4700;SDS011;8724;51.272;6.554;2023-05-10T07:21:25;30.67;;;22.70;;
4700;SDS011;8724;51.272;6.554;2023-05-10T07:23:55;30.57;;;22.20;;
4700;SDS011;8724;51.272;6.554;2023-05-10T07:26:23;33.93;;;22.53;;
4700;SDS011;8724;51.272;6.554;2023-05-10T07:28:52;30.73;;;21.50;;
4700;SDS011;8724;51.272;6.554;2023-05-10T07:31:20;33.07;;;23.50;;
4700;SDS011;8724;51.272;6.554;2023-05-10T07:33:48;31.50;;;24.30;;
4700;SDS011;8724;51.272;6.554;2023-05-10T07:36:18;30.40;;;23.40;;
4700;SDS011;8724;51.272;6.554;2023-05-10T07:38:47;30.30;;;21.90;;
4700;SDS011;8724;51.272;6.554;2023-05-10T07:41:15;27.57;;;21.37;;
4700;SDS011;8724;51.272;6.554;2023-05-10T07:43:44;26.60;;;20.60;;
4700;SDS011;8724;51.272;6.554;2023-05-10T07:46:13;25.47;;;18.53;;
4700;SDS011;8724;51.272;6.554;2023-05-10T07:48:42;25.03;;;20.03;;
4700;SDS011;8724;51.272;6.554;2023-05-10T07:51:10;24.20;;;18.80;;
4700;SDS011;8724;51.272;6.554;2023-05-10T07:53:41;23.73;;;18.57;;
4700;SDS011;8724;51.272;6.554;2023-05-10T07:56:19;23.03;;;17.13;;
4700;SDS011;8724;51.272;6.554;2023-05-10T07:58:49;26.83;;;20.30;;
4700;SDS011;8724;51.272;6.554;2023-05-10T08:01:17;29.40;;;20.03;;
4700;SDS011;8724;51.272;6.554;2023-05-10T08:03:46;23.57;;;19.30;;
4700;SDS011;8724;51.272;6.554;2023-05-10T08:06:16;23.73;;;19.50;;
4700;SDS011;8724;51.272;6.554;2023-05-10T08:08:46;23.67;;;19.23;;
4700;SDS011;8724;51.272;6.554;2023-05-10T08:11:16;23.03;;;18.10;;
4700;SDS011;8724;51.272;6.554;2023-05-10T08:13:45;26.03;;;19.20;;
4700;SDS011;8724;51.272;6.554;2023-05-10T08:16:14;22.27;;;16.20;;
4700;SDS011;8724;51.272;6.554;2023-05-10T08:18:43;23.57;;;15.17;;
4700;SDS011;8724;51.272;6.554;2023-05-10T08:21:13;20.83;;;16.13;;
4700;SDS011;8724;51.272;6.554;2023-05-10T08:23:42;20.73;;;15.87;;
4700;SDS011;8724;51.272;6.554;2023-05-10T08:26:12;23.00;;;14.70;;
4700;SDS011;8724;51.272;6.554;2023-05-10T08:28:41;15.10;;;13.53;;
4700;SDS011;8724;51.272;6.554;2023-05-10T08:31:09;21.80;;;15.20;;
4700;SDS011;8724;51.272;6.554;2023-05-10T08:33:38;15.90;;;13.77;;
4700;SDS011;8724;51.272;6.554;2023-05-10T08:36:09;17.33;;;12.97;;
4700;SDS011;8724;51.272;6.554;2023-05-10T08:38:37;23.30;;;14.33;;
4700;SDS011;8724;51.272;6.554;2023-05-10T08:41:06;19.03;;;15.93;;
4700;SDS011;8724;51.272;6.554;2023-05-10T08:43:36;22.17;;;17.20;;
4700;SDS011;8724;51.272;6.554;2023-05-10T08:46:08;19.43;;;16.37;;
4700;SDS011;8724;51.272;6.554;2023-05-10T08:48:38;17.70;;;14.83;;
4700;SDS011;8724;51.272;6.554;2023-05-10T08:51:07;15.70;;;14.03;;
4700;SDS011;8724;51.272;6.554;2023-05-10T08:53:37;15.60;;;13.13;;
4700;SDS011;8724;51.272;6.554;2023-05-10T08:56:05;13.60;;;11.83;;
4700;SDS011;8724;51.272;6.554;2023-05-10T08:58:34;14.83;;;12.70;;
4700;SDS011;8724;51.272;6.554;2023-05-10T09:01:05;15.83;;;12.70;;
4700;SDS011;8724;51.272;6.554;2023-05-10T09:03:34;14.30;;;11.57;;
4700;SDS011;8724;51.272;6.554;2023-05-10T09:06:05;16.93;;;14.13;;
4700;SDS011;8724;51.272;6.554;2023-05-10T09:08:34;17.73;;;11.70;;
4700;SDS011;8724;51.272;6.554;2023-05-10T09:11:05;11.90;;;10.70;;
4700;SDS011;8724;51.272;6.554;2023-05-10T09:13:33;12.80;;;10.53;;
4700;SDS011;8724;51.272;6.554;2023-05-10T09:16:05;13.77;;;12.00;;
4700;SDS011;8724;51.272;6.554;2023-05-10T09:18:47;14.77;;;12.47;;
4700;SDS011;8724;51.272;6.554;2023-05-10T09:21:17;12.57;;;10.43;;
4700;SDS011;8724;51.272;6.554;2023-05-10T09:23:47;14.50;;;12.33;;
4700;SDS011;8724;51.272;6.554;2023-05-10T09:26:16;11.97;;;10.20;;
4700;SDS011;8724;51.272;6.554;2023-05-10T09:28:51;11.80;;;10.33;;
4700;SDS011;8724;51.272;6.554;2023-05-10T09:31:21;14.93;;;11.60;;
4700;SDS011;8724;51.272;6.554;2023-05-10T09:33:50;15.77;;;11.90;;
4700;SDS011;8724;51.272;6.554;2023-05-10T09:36:19;17.50;;;12.70;;
4700;SDS011;8724;51.272;6.554;2023-05-10T09:38:48;15.33;;;11.90;;
4700;SDS011;8724;51.272;6.554;2023-05-10T09:41:18;15.57;;;12.00;;
4700;SDS011;8724;51.272;6.554;2023-05-10T09:43:48;15.10;;;12.87;;
4700;SDS011;8724;51.272;6.554;2023-05-10T09:46:19;16.67;;;13.13;;
4700;SDS011;8724;51.272;6.554;2023-05-10T09:48:48;15.77;;;13.60;;
4700;SDS011;8724;51.272;6.554;2023-05-10T09:51:19;13.17;;;11.83;;
4700;SDS011;8724;51.272;6.554;2023-05-10T09:53:48;14.10;;;11.30;;
4700;SDS011;8724;51.272;6.554;2023-05-10T09:56:36;12.87;;;10.60;;
4700;SDS011;8724;51.272;6.554;2023-05-10T09:59:07;12.53;;;10.40;;
4700;SDS011;8724;51.272;6.554;2023-05-10T10:01:39;14.37;;;12.17;;
4700;SDS011;8724;51.272;6.554;2023-05-10T10:04:09;17.93;;;12.20;;
4700;SDS011;8724;51.272;6.554;2023-05-10T10:06:38;16.80;;;11.47;;
4700;SDS011;8724;51.272;6.554;2023-05-10T10:09:07;14.83;;;10.60;;
4700;SDS011;8724;51.272;6.554;2023-05-10T10:11:37;16.10;;;11.90;;
4700;SDS011;8724;51.272;6.554;2023-05-10T10:14:08;13.97;;;11.00;;
4700;SDS011;8724;51.272;6.554;2023-05-10T10:16:36;14.13;;;11.03;;
4700;SDS011;8724;51.272;6.554;2023-05-10T10:19:25;14.47;;;10.97;;
4700;SDS011;8724;51.272;6.554;2023-05-10T10:21:56;15.73;;;11.80;;
4700;SDS011;8724;51.272;6.554;2023-05-10T10:24:25;11.30;;;10.13;;
4700;SDS011;8724;51.272;6.554;2023-05-10T10:26:55;13.33;;;11.00;;
4700;SDS011;8724;51.272;6.554;2023-05-10T10:29:32;12.70;;;10.60;;
4700;SDS011;8724;51.272;6.554;2023-05-10T10:32:09;11.27;;;9.63;;
4700;SDS011;8724;51.272;6.554;2023-05-10T10:34:49;16.37;;;13.20;;
4700;SDS011;8724;51.272;6.554;2023-05-10T10:37:18;17.57;;;13.40;;
4700;SDS011;8724;51.272;6.554;2023-05-10T10:39:48;16.20;;;13.67;;
4700;SDS011;8724;51.272;6.554;2023-05-10T10:45:12;18.47;;;14.87;;
4700;SDS011;8724;51.272;6.554;2023-05-10T10:47:43;23.23;;;16.83;;
4700;SDS011;8724;51.272;6.554;2023-05-10T10:50:12;18.33;;;15.63;;
4700;SDS011;8724;51.272;6.554;2023-05-10T10:52:42;17.23;;;14.57;;
4700;SDS011;8724;51.272;6.554;2023-05-10T10:55:12;19.53;;;14.40;;
4700;SDS011;8724;51.272;6.554;2023-05-10T10:57:45;17.00;;;15.30;;
4700;SDS011;8724;51.272;6.554;2023-05-10T11:00:22;21.73;;;17.40;;
4700;SDS011;8724;51.272;6.554;2023-05-10T11:02:54;18.80;;;15.63;;
4700;SDS011;8724;51.272;6.554;2023-05-10T11:08:12;17.93;;;16.03;;
4700;SDS011;8724;51.272;6.554;2023-05-10T11:10:53;19.97;;;15.30;;
4700;SDS011;8724;51.272;6.554;2023-05-10T11:13:31;15.37;;;12.93;;
4700;SDS011;8724;51.272;6.554;2023-05-10T11:16:17;16.10;;;14.40;;
4700;SDS011;8724;51.272;6.554;2023-05-10T11:18:56;19.30;;;13.57;;
4700;SDS011;8724;51.272;6.554;2023-05-10T11:21:28;11.63;;;10.40;;
4700;SDS011;8724;51.272;6.554;2023-05-10T11:23:58;12.27;;;11.00;;
4700;SDS011;8724;51.272;6.554;2023-05-10T11:26:33;13.20;;;10.87;;
4700;SDS011;8724;51.272;6.554;2023-05-10T11:29:03;12.57;;;10.20;;
4700;SDS011;8724;51.272;6.554;2023-05-10T11:31:32;10.40;;;9.17;;
4700;SDS011;8724;51.272;6.554;2023-05-10T11:34:02;10.33;;;9.33;;
4700;SDS011;8724;51.272;6.554;2023-05-10T11:36:32;9.77;;;8.77;;
4700;SDS011;8724;51.272;6.554;2023-05-10T11:39:03;13.30;;;11.90;;
4700;SDS011;8724;51.272;6.554;2023-05-10T11:41:32;17.43;;;13.57;;
4700;SDS011;8724;51.272;6.554;2023-05-10T11:44:01;16.07;;;12.47;;
4700;SDS011;8724;51.272;6.554;2023-05-10T11:46:30;13.50;;;11.20;;
4700;SDS011;8724;51.272;6.554;2023-05-10T11:48:59;13.20;;;10.80;;
4700;SDS011;8724;51.272;6.554;2023-05-10T11:51:32;12.50;;;10.33;;
4700;SDS011;8724;51.272;6.554;2023-05-10T11:54:05;12.77;;;11.37;;
4700;SDS011;8724;51.272;6.554;2023-05-10T11:56:34;13.60;;;11.87;;
4700;SDS011;8724;51.272;6.554;2023-05-10T11:59:03;15.70;;;13.00;;
4700;SDS011;8724;51.272;6.554;2023-05-10T12:01:32;12.17;;;10.80;;
4700;SDS011;8724;51.272;6.554;2023-05-10T12:04:02;12.33;;;11.23;;
4700;SDS011;8724;51.272;6.554;2023-05-10T12:06:32;13.83;;;11.90;;
4700;SDS011;8724;51.272;6.554;2023-05-10T12:09:07;16.43;;;13.60;;
4700;SDS011;8724;51.272;6.554;2023-05-10T12:11:37;15.73;;;13.60;;
4700;SDS011;8724;51.272;6.554;2023-05-10T12:14:10;16.27;;;14.67;;
4700;SDS011;8724;51.272;6.554;2023-05-10T12:16:38;16.63;;;14.50;;
4700;SDS011;8724;51.272;6.554;2023-05-10T12:19:08;14.87;;;13.27;;
4700;SDS011;8724;51.272;6.554;2023-05-10T12:21:37;18.37;;;15.43;;
4700;SDS011;8724;51.272;6.554;2023-05-10T12:24:08;17.03;;;15.17;;
4700;SDS011;8724;51.272;6.554;2023-05-10T12:26:37;16.00;;;13.17;;
4700;SDS011;8724;51.272;6.554;2023-05-10T12:29:12;15.53;;;13.57;;
4700;SDS011;8724;51.272;6.554;2023-05-10T12:31:54;17.60;;;14.77;;
4700;SDS011;8724;51.272;6.554;2023-05-10T12:34:30;17.50;;;14.60;;
4700;SDS011;8724;51.272;6.554;2023-05-10T12:36:59;17.00;;;15.20;;
4700;SDS011;8724;51.272;6.554;2023-05-10T12:39:38;15.70;;;14.10;;
4700;SDS011;8724;51.272;6.554;2023-05-10T12:42:07;18.93;;;16.93;;
4700;SDS011;8724;51.272;6.554;2023-05-10T12:44:36;18.37;;;15.07;;
4700;SDS011;8724;51.272;6.554;2023-05-10T12:47:05;16.33;;;14.30;;
4700;SDS011;8724;51.272;6.554;2023-05-10T12:49:35;17.20;;;14.07;;
4700;SDS011;8724;51.272;6.554;2023-05-10T12:52:03;15.50;;;14.00;;
4700;SDS011;8724;51.272;6.554;2023-05-10T12:54:31;19.63;;;15.30;;
4700;SDS011;8724;51.272;6.554;2023-05-10T12:57:00;17.17;;;14.70;;
4700;SDS011;8724;51.272;6.554;2023-05-10T12:59:28;14.57;;;13.10;;
4700;SDS011;8724;51.272;6.554;2023-05-10T13:01:57;15.13;;;13.57;;
4700;SDS011;8724;51.272;6.554;2023-05-10T13:04:26;16.60;;;13.50;;
4700;SDS011;8724;51.272;6.554;2023-05-10T13:06:56;16.40;;;14.70;;
4700;SDS011;8724;51.272;6.554;2023-05-10T13:09:25;17.03;;;15.20;;
4700;SDS011;8724;51.272;6.554;2023-05-10T13:11:55;16.80;;;14.00;;
4700;SDS011;8724;51.272;6.554;2023-05-10T13:14:24;15.73;;;13.90;;
4700;SDS011;8724;51.272;6.554;2023-05-10T13:16:53;15.33;;;13.67;;
4700;SDS011;8724;51.272;6.554;2023-05-10T13:19:22;14.80;;;13.30;;
4700;SDS011;8724;51.272;6.554;2023-05-10T13:21:50;13.57;;;11.47;;
4700;SDS011;8724;51.272;6.554;2023-05-10T13:24:20;16.83;;;13.47;;
4700;SDS011;8724;51.272;6.554;2023-05-10T13:26:48;13.73;;;12.33;;
4700;SDS011;8724;51.272;6.554;2023-05-10T13:29:17;16.57;;;13.20;;
4700;SDS011;8724;51.272;6.554;2023-05-10T13:31:47;13.87;;;12.47;;
4700;SDS011;8724;51.272;6.554;2023-05-10T13:34:16;12.63;;;11.30;;
4700;SDS011;8724;51.272;6.554;2023-05-10T13:36:47;18.03;;;13.90;;
4700;SDS011;8724;51.272;6.554;2023-05-10T13:39:15;13.27;;;11.73;;
4700;SDS011;8724;51.272;6.554;2023-05-10T13:41:45;13.63;;;12.23;;
4700;SDS011;8724;51.272;6.554;2023-05-10T13:44:14;12.13;;;10.93;;
4700;SDS011;8724;51.272;6.554;2023-05-10T13:46:42;10.30;;;9.30;;
4700;SDS011;8724;51.272;6.554;2023-05-10T13:49:11;10.60;;;9.57;;
4700;SDS011;8724;51.272;6.554;2023-05-10T13:51:39;9.60;;;8.60;;
4700;SDS011;8724;51.272;6.554;2023-05-10T13:54:08;11.43;;;10.33;;
4700;SDS011;8724;51.272;6.554;2023-05-10T13:56:39;9.90;;;8.70;;
4700;SDS011;8724;51.272;6.554;2023-05-10T13:59:09;9.00;;;8.10;;
4700;SDS011;8724;51.272;6.554;2023-05-10T14:01:37;9.40;;;8.40;;
4700;SDS011;8724;51.272;6.554;2023-05-10T14:04:06;8.97;;;8.07;;
4700;SDS011;8724;51.272;6.554;2023-05-10T14:06:37;10.43;;;8.60;;
4700;SDS011;8724;51.272;6.554;2023-05-10T14:09:05;10.10;;;9.10;;
4700;SDS011;8724;51.272;6.554;2023-05-10T14:11:34;8.97;;;8.10;;
4700;SDS011;8724;51.272;6.554;2023-05-10T14:14:02;10.03;;;9.03;;
4700;SDS011;8724;51.272;6.554;2023-05-10T14:16:32;9.00;;;7.00;;
4700;SDS011;8724;51.272;6.554;2023-05-10T14:19:00;7.07;;;6.40;;
4700;SDS011;8724;51.272;6.554;2023-05-10T14:21:29;8.10;;;6.50;;
4700;SDS011;8724;51.272;6.554;2023-05-10T14:23:57;7.03;;;6.43;;
4700;SDS011;8724;51.272;6.554;2023-05-10T14:26:25;7.50;;;6.40;;
4700;SDS011;8724;51.272;6.554;2023-05-10T14:28:54;8.43;;;7.67;;
4700;SDS011;8724;51.272;6.554;2023-05-10T14:31:22;11.40;;;7.30;;
4700;SDS011;8724;51.272;6.554;2023-05-10T14:33:53;7.47;;;6.77;;
4700;SDS011;8724;51.272;6.554;2023-05-10T14:36:22;7.67;;;5.97;;
4700;SDS011;8724;51.272;6.554;2023-05-10T14:38:50;7.30;;;6.60;;
4700;SDS011;8724;51.272;6.554;2023-05-10T14:41:19;5.97;;;5.37;;
4700;SDS011;8724;51.272;6.554;2023-05-10T14:43:47;6.03;;;5.53;;
4700;SDS011;8724;51.272;6.554;2023-05-10T14:46:16;5.77;;;5.27;;
4700;SDS011;8724;51.272;6.554;2023-05-10T14:48:44;6.97;;;6.37;;
4700;SDS011;8724;51.272;6.554;2023-05-10T14:51:14;6.00;;;5.47;;
4700;SDS011;8724;51.272;6.554;2023-05-10T14:53:42;6.60;;;5.63;;
4700;SDS011;8724;51.272;6.554;2023-05-10T14:56:11;10.50;;;6.50;;
4700;SDS011;8724;51.272;6.554;2023-05-10T14:58:39;6.23;;;5.63;;
4700;SDS011;8724;51.272;6.554;2023-05-10T15:01:08;5.90;;;5.40;;
4700;SDS011;8724;51.272;6.554;2023-05-10T15:03:37;6.70;;;5.73;;
4700;SDS011;8724;51.272;6.554;2023-05-10T15:06:07;8.50;;;6.47;;
4700;SDS011;8724;51.272;6.554;2023-05-10T15:08:37;7.30;;;6.63;;
4700;SDS011;8724;51.272;6.554;2023-05-10T15:11:06;7.37;;;6.73;;
4700;SDS011;8724;51.272;6.554;2023-05-10T15:13:34;8.33;;;7.53;;
4700;SDS011;8724;51.272;6.554;2023-05-10T15:16:03;8.40;;;7.40;;
4700;SDS011;8724;51.272;6.554;2023-05-10T15:18:31;9.90;;;7.60;;